createdAt,value
2019-05-15T00:01:42.054Z,53.91
2019-05-15T00:04:12.270Z,53.87
2019-05-15T00:06:42.383Z,53.94
2019-05-15T00:09:12.559Z,54.10
2019-05-15T00:11:42.688Z,54.23
2019-05-15T00:14:12.821Z,54.12
2019-05-15T00:16:42.955Z,54.31
2019-05-15T00:19:13.092Z,54.28
2019-05-15T00:21:43.225Z,54.56
2019-05-15T00:24:13.435Z,54.61
2019-05-15T00:26:43.609Z,54.77
2019-05-15T00:29:16.269Z,55.16
2019-05-15T00:31:48.567Z,54.90
2019-05-15T00:34:19.147Z,55.23
2019-05-15T00:36:49.270Z,55.02
2019-05-15T00:39:19.435Z,54.84
2019-05-15T00:41:54.419Z,54.88
2019-05-15T00:44:21.392Z,55.01
2019-05-15T00:46:51.503Z,55.02
2019-05-15T00:49:21.642Z,55.00
2019-05-15T00:51:51.756Z,55.18
2019-05-15T00:54:21.909Z,55.12
2019-05-15T00:56:52.052Z,55.16
2019-05-15T00:59:26.655Z,55.39
2019-05-15T01:01:53.973Z,55.41
2019-05-15T01:04:24.107Z,55.34
2019-05-15T01:06:54.253Z,55.44
2019-05-15T01:09:24.423Z,55.51
2019-05-15T01:11:54.610Z,55.64
2019-05-15T01:14:24.749Z,55.71
2019-05-15T01:16:54.884Z,55.74
2019-05-15T01:19:25.019Z,55.86
2019-05-15T01:21:55.153Z,55.92
2019-05-15T01:24:25.301Z,55.88
2019-05-15T01:26:55.419Z,55.94
2019-05-15T01:29:38.451Z,55.95
2019-05-15T01:31:59.259Z,56.21
2019-05-15T01:34:29.512Z,55.99
2019-05-15T01:36:59.675Z,56.09
2019-05-15T01:39:29.813Z,56.17
2019-05-15T01:42:00.016Z,56.56
2019-05-15T01:44:30.172Z,56.87
2019-05-15T01:47:00.290Z,56.60
2019-05-15T01:49:30.415Z,56.53
2019-05-15T01:52:00.545Z,56.49
2019-05-15T01:54:30.683Z,56.49
2019-05-15T01:57:00.809Z,56.54
2019-05-15T01:59:30.931Z,56.58
2019-05-15T02:02:01.055Z,56.66
2019-05-15T02:04:31.206Z,57.04
2019-05-15T02:07:01.329Z,57.48
2019-05-15T02:09:31.494Z,57.02
2019-05-15T02:12:01.638Z,56.99
2019-05-15T02:14:31.786Z,56.90
2019-05-15T02:17:01.930Z,56.89
2019-05-15T02:19:32.140Z,56.86
2019-05-15T02:22:02.272Z,56.86
2019-05-15T02:24:32.401Z,56.88
2019-05-15T02:27:02.524Z,56.98
2019-05-15T02:29:32.790Z,56.99
2019-05-15T02:32:02.935Z,56.92
2019-05-15T02:34:33.070Z,56.92
2019-05-15T02:37:03.194Z,56.95
2019-05-15T02:39:33.354Z,57.02
2019-05-15T02:42:03.500Z,57.15
2019-05-15T02:44:33.647Z,57.38
2019-05-15T02:47:03.793Z,57.59
2019-05-15T02:49:33.924Z,57.58
2019-05-15T02:52:04.057Z,57.73
2019-05-15T02:54:34.194Z,57.66
2019-05-15T02:57:04.322Z,57.58
2019-05-15T02:59:34.534Z,57.72
2019-05-15T03:02:04.852Z,58.34
2019-05-15T03:04:35.019Z,59.12
2019-05-15T03:07:05.164Z,59.54
2019-05-15T03:09:35.518Z,59.32
2019-05-15T03:12:05.680Z,59.47
2019-05-15T03:14:35.814Z,58.68
2019-05-15T03:17:05.943Z,57.96
2019-05-15T03:19:38.978Z,58.33
2019-05-15T03:22:09.739Z,58.80
2019-05-15T03:24:39.959Z,58.44
2019-05-15T03:27:10.108Z,57.92
2019-05-15T03:29:40.594Z,57.97
2019-05-15T03:32:25.132Z,57.83
2019-05-15T03:34:47.258Z,57.12
2019-05-15T03:37:14.326Z,56.49
2019-05-15T03:39:48.358Z,56.44
2019-05-15T03:42:18.989Z,56.36
2019-05-15T03:44:50.156Z,57.00
2019-05-15T03:47:21.342Z,57.03
2019-05-15T03:49:51.507Z,57.41
2019-05-15T03:52:21.629Z,58.30
2019-05-15T03:54:52.168Z,58.69
2019-05-15T03:57:23.270Z,58.92
2019-05-15T03:59:53.732Z,59.29
2019-05-15T04:02:23.879Z,59.18
2019-05-15T04:04:57.080Z,59.62
2019-05-15T04:07:29.069Z,59.79
2019-05-15T04:09:58.832Z,60.02
2019-05-15T04:12:29.380Z,60.26
2019-05-15T04:14:59.850Z,59.34
2019-05-15T04:17:29.950Z,58.83
2019-05-15T04:20:00.988Z,58.70
2019-05-15T04:22:31.279Z,59.09
2019-05-15T04:25:03.768Z,59.29
2019-05-15T04:27:35.299Z,59.86
2019-05-15T04:30:05.882Z,59.92
2019-05-15T04:32:39.561Z,59.75
2019-05-15T04:35:09.234Z,60.62
2019-05-15T04:37:41.083Z,60.73
2019-05-15T04:40:11.805Z,61.88
2019-05-15T04:42:41.938Z,61.04
2019-05-15T04:45:12.299Z,61.05
2019-05-15T04:47:42.425Z,60.65
2019-05-15T04:50:13.067Z,60.45
2019-05-15T04:52:43.682Z,59.99
2019-05-15T04:55:13.996Z,59.99
2019-05-15T04:57:44.208Z,59.54
2019-05-15T05:00:14.549Z,59.44
2019-05-15T05:02:44.760Z,59.81
2019-05-15T05:05:15.170Z,59.74
2019-05-15T05:07:45.426Z,59.75
2019-05-15T05:10:15.742Z,59.80
2019-05-15T05:12:50.571Z,59.45
2019-05-15T05:15:19.034Z,58.80
2019-05-15T05:17:49.432Z,58.33
2019-05-15T05:20:19.562Z,57.86
2019-05-15T05:22:50.302Z,57.71
2019-05-15T05:25:20.472Z,57.81
2019-05-15T05:27:50.614Z,57.45
2019-05-15T05:30:21.551Z,57.70
2019-05-15T05:32:51.736Z,58.03
2019-05-15T05:35:23.491Z,58.09
2019-05-15T05:37:53.607Z,58.21
2019-05-15T05:40:23.753Z,58.34
2019-05-15T05:42:53.865Z,57.72
2019-05-15T05:45:23.988Z,57.24
2019-05-15T05:47:54.126Z,56.68
2019-05-15T05:50:38.507Z,56.41
2019-05-15T05:53:09.151Z,56.47
2019-05-15T05:55:39.327Z,56.26
2019-05-15T05:58:09.447Z,56.19
2019-05-15T06:00:45.729Z,56.18
2019-05-15T06:03:19.242Z,56.74
2019-05-15T06:05:49.623Z,57.21
2019-05-15T06:08:20.258Z,58.07
2019-05-15T06:10:50.659Z,58.33
2019-05-15T06:13:20.791Z,57.83
2019-05-15T06:15:50.919Z,57.90
2019-05-15T06:18:21.053Z,57.42
2019-05-15T06:20:51.287Z,57.00
2019-05-15T06:23:24.334Z,57.17
2019-05-15T06:25:53.871Z,57.26
2019-05-15T06:28:23.996Z,57.11
2019-05-15T06:30:54.154Z,56.66
2019-05-15T06:33:24.280Z,56.82
2019-05-15T06:35:54.421Z,56.52
2019-05-15T06:38:24.539Z,56.70
2019-05-15T06:40:54.754Z,57.22
2019-05-15T06:43:24.867Z,57.07
2019-05-15T06:45:58.284Z,57.19
2019-05-15T06:48:28.853Z,57.15
2019-05-15T06:50:59.197Z,57.06
2019-05-15T06:53:29.321Z,57.62
2019-05-15T06:55:59.508Z,57.53
2019-05-15T06:58:29.620Z,57.50
2019-05-15T07:00:59.756Z,57.24
2019-05-15T07:03:29.902Z,57.42
2019-05-15T07:06:00.159Z,57.50
2019-05-15T07:08:30.263Z,57.33
2019-05-15T07:11:00.922Z,57.41
2019-05-15T07:13:32.308Z,57.77
2019-05-15T07:16:02.483Z,57.61
2019-05-15T07:18:33.594Z,57.38
2019-05-15T07:21:03.731Z,57.73
2019-05-15T07:23:33.848Z,57.77
2019-05-15T07:26:04.202Z,57.02
2019-05-15T07:28:34.341Z,54.97
2019-05-15T07:31:04.455Z,52.62
2019-05-15T07:33:42.296Z,52.48
2019-05-15T07:36:08.432Z,51.89
2019-05-15T07:38:39.398Z,51.06
2019-05-15T07:41:10.487Z,49.99
2019-05-15T07:43:40.743Z,48.17
2019-05-15T07:46:10.885Z,48.18
2019-05-15T07:48:43.865Z,48.65
2019-05-15T07:51:12.864Z,47.20
2019-05-15T07:53:43.020Z,47.35
2019-05-15T07:56:13.160Z,47.13
2019-05-15T07:58:43.297Z,46.74
2019-05-15T08:01:13.435Z,46.85
2019-05-15T08:03:56.667Z,46.54
2019-05-15T08:06:17.855Z,46.11
2019-05-15T08:08:48.634Z,46.12
2019-05-15T08:11:24.059Z,45.83
2019-05-15T08:13:51.106Z,45.87
2019-05-15T08:16:21.231Z,46.21
2019-05-15T08:18:52.019Z,46.38
2019-05-15T08:21:22.157Z,45.53
2019-05-15T08:23:52.307Z,44.89
2019-05-15T08:26:22.440Z,44.24
2019-05-15T08:28:52.562Z,44.36
2019-05-15T08:31:22.710Z,44.20
2019-05-15T08:33:52.833Z,43.61
2019-05-15T08:36:22.985Z,43.46
2019-05-15T08:38:53.098Z,43.05
2019-05-15T08:41:23.239Z,42.91
2019-05-15T08:43:53.367Z,43.04
2019-05-15T08:46:23.510Z,43.01
2019-05-15T08:48:53.641Z,43.02
2019-05-15T08:51:23.823Z,43.49
2019-05-15T08:53:53.960Z,43.12
2019-05-15T08:56:24.115Z,42.49
2019-05-15T08:58:54.235Z,42.39
2019-05-15T09:01:24.379Z,42.14
2019-05-15T09:03:54.529Z,42.50
2019-05-15T09:06:24.671Z,43.00
2019-05-15T09:08:54.790Z,42.40
2019-05-15T09:11:24.999Z,41.81
2019-05-15T09:13:55.178Z,41.56
2019-05-15T09:16:27.935Z,41.78
2019-05-15T09:18:59.173Z,41.41
2019-05-15T09:21:29.021Z,40.92
2019-05-15T09:23:59.188Z,40.39
2019-05-15T09:26:29.323Z,39.71
2019-05-15T09:28:59.446Z,40.13
2019-05-15T09:31:29.703Z,40.25
2019-05-15T09:33:59.833Z,39.81
2019-05-15T09:36:29.971Z,39.88
2019-05-15T09:39:00.092Z,39.55
2019-05-15T09:41:30.230Z,39.61
2019-05-15T09:44:00.375Z,38.93
2019-05-15T09:46:30.507Z,39.13
2019-05-15T09:49:00.682Z,38.95
2019-05-15T09:51:30.822Z,38.80
2019-05-15T09:54:00.951Z,38.90
2019-05-15T09:56:31.074Z,38.53
2019-05-15T09:59:02.278Z,38.64
2019-05-15T10:01:32.424Z,39.31
2019-05-15T10:04:02.567Z,39.00
2019-05-15T10:06:33.783Z,39.66
2019-05-15T10:09:04.975Z,39.21
2019-05-15T10:11:35.188Z,38.42
2019-05-15T10:14:05.327Z,37.58
2019-05-15T10:16:35.603Z,38.13
2019-05-15T10:19:05.730Z,38.59
2019-05-15T10:21:35.851Z,38.45
2019-05-15T10:24:05.981Z,38.73
2019-05-15T10:26:36.119Z,38.66
2019-05-15T10:29:08.951Z,38.56
2019-05-15T10:31:38.935Z,38.44
2019-05-15T10:34:09.381Z,38.18
2019-05-15T10:36:39.608Z,37.42
2019-05-15T10:39:09.902Z,38.38
2019-05-15T10:41:40.004Z,38.93
2019-05-15T10:44:11.118Z,38.96
2019-05-15T10:46:41.289Z,37.54
2019-05-15T10:49:11.404Z,37.85
2019-05-15T10:51:42.027Z,38.19
2019-05-15T10:54:12.169Z,38.21
2019-05-15T10:56:42.369Z,38.04
2019-05-15T10:59:12.505Z,39.07
2019-05-15T11:01:42.640Z,39.47
2019-05-15T11:04:12.794Z,38.21
2019-05-15T11:06:42.929Z,38.88
2019-05-15T11:09:13.075Z,38.42
2019-05-15T11:11:43.264Z,38.32
2019-05-15T11:14:13.395Z,39.02
2019-05-15T11:16:43.541Z,39.20
2019-05-15T11:19:13.667Z,40.79
2019-05-15T11:21:43.907Z,41.50
2019-05-15T11:24:14.643Z,42.64
2019-05-15T11:26:44.795Z,41.64
2019-05-15T11:29:14.950Z,40.89
2019-05-15T11:31:45.078Z,40.57
2019-05-15T11:34:15.196Z,40.15
2019-05-15T11:36:48.270Z,40.09
2019-05-15T11:39:18.921Z,40.38
2019-05-15T11:41:49.524Z,39.48
2019-05-15T11:44:19.739Z,40.00
2019-05-15T11:46:49.939Z,39.82
2019-05-15T11:49:20.116Z,38.80
2019-05-15T11:51:50.245Z,38.87
2019-05-15T11:54:20.370Z,39.66
2019-05-15T11:56:50.541Z,38.98
2019-05-15T11:59:20.663Z,39.27
2019-05-15T12:01:50.793Z,41.24
2019-05-15T12:04:30.141Z,42.30
2019-05-15T12:06:59.612Z,41.02
2019-05-15T12:09:24.680Z,39.78
2019-05-15T12:11:54.869Z,39.96
2019-05-15T12:14:25.010Z,37.87
2019-05-15T12:17:07.248Z,40.00
2019-05-15T12:19:29.141Z,39.73
2019-05-15T12:21:59.777Z,40.14
2019-05-15T12:24:35.921Z,39.21
2019-05-15T12:27:13.865Z,36.55
2019-05-15T12:29:33.833Z,39.52
2019-05-15T12:32:21.786Z,38.14
2019-05-15T12:34:38.634Z,39.79
2019-05-15T12:37:09.867Z,40.08
2019-05-15T12:39:41.186Z,40.14
2019-05-15T12:59:54.384Z,41.23
2019-05-15T13:02:24.520Z,42.10
2019-05-15T13:04:54.632Z,41.82
2019-05-15T13:07:24.774Z,41.18
2019-05-15T13:09:54.908Z,41.21
2019-05-15T13:12:25.242Z,40.62
2019-05-15T13:14:55.366Z,40.67
2019-05-15T13:17:25.508Z,40.87
2019-05-15T13:19:58.492Z,40.71
2019-05-15T13:22:28.143Z,40.82
2019-05-15T13:24:58.849Z,40.57
2019-05-15T13:27:29.139Z,41.54
2019-05-15T13:30:01.295Z,41.92
2019-05-15T13:32:31.425Z,41.39
2019-05-15T13:35:01.625Z,41.44
2019-05-15T13:37:31.820Z,41.83
2019-05-15T13:40:01.978Z,40.86
2019-05-15T13:42:32.160Z,41.37
2019-05-15T13:45:02.310Z,40.95
2019-05-15T13:47:32.452Z,40.57
2019-05-15T13:50:02.587Z,39.83
2019-05-15T13:52:33.370Z,39.74
2019-05-15T13:55:03.501Z,39.44
2019-05-15T13:57:33.641Z,39.77
2019-05-15T14:00:03.803Z,39.56
2019-05-15T14:02:34.008Z,39.66
2019-05-15T14:05:04.268Z,39.16
2019-05-15T14:07:45.935Z,38.86
2019-05-15T14:10:09.230Z,39.10
2019-05-15T14:12:39.585Z,39.55
2019-05-15T14:15:10.131Z,39.26
2019-05-15T14:17:40.272Z,39.16
2019-05-15T14:20:10.719Z,40.06
2019-05-15T14:22:40.863Z,40.02
2019-05-15T14:25:11.302Z,39.97
2019-05-15T14:27:41.718Z,39.70
2019-05-15T14:30:13.458Z,40.26
2019-05-15T14:32:43.594Z,39.83
2019-05-15T14:35:14.239Z,40.04
2019-05-15T14:37:44.398Z,38.47
2019-05-15T14:40:14.923Z,37.60
2019-05-15T14:42:45.094Z,36.69
2019-05-15T14:45:15.430Z,37.28
2019-05-15T14:47:45.586Z,37.66
2019-05-15T14:50:16.777Z,37.40
2019-05-15T14:52:47.950Z,37.89
2019-05-15T14:55:19.115Z,37.77
2019-05-15T14:57:49.271Z,37.05
2019-05-15T15:00:20.709Z,36.58
2019-05-15T15:02:50.884Z,37.09
2019-05-15T15:05:22.717Z,36.72
2019-05-15T15:07:52.889Z,36.67
2019-05-15T15:10:23.034Z,37.04
2019-05-15T15:12:53.182Z,37.16
2019-05-15T15:15:23.301Z,37.68
2019-05-15T15:17:53.443Z,37.40
2019-05-15T15:20:23.864Z,37.54
2019-05-15T15:22:54.074Z,37.75
2019-05-15T15:25:24.208Z,37.69
2019-05-15T15:27:54.347Z,37.76
2019-05-15T15:30:24.464Z,37.84
2019-05-15T15:32:54.650Z,38.02
2019-05-15T15:35:24.779Z,38.57
2019-05-15T15:37:54.929Z,38.45
2019-05-15T15:40:25.074Z,38.77
2019-05-15T15:42:55.203Z,37.94
2019-05-15T15:45:25.333Z,37.82
2019-05-15T15:47:55.483Z,37.55
2019-05-15T15:50:25.641Z,37.19
2019-05-15T15:52:55.817Z,36.95
2019-05-15T15:55:25.952Z,36.93
2019-05-15T15:57:56.117Z,36.94
2019-05-15T16:00:28.409Z,36.99
2019-05-15T16:02:58.186Z,37.02
2019-05-15T16:05:29.111Z,37.24
2019-05-15T16:07:59.331Z,37.20
2019-05-15T16:10:29.467Z,37.26
2019-05-15T16:12:59.615Z,37.03
2019-05-15T16:15:30.884Z,37.55
2019-05-15T16:18:02.654Z,37.38
2019-05-15T16:20:32.796Z,37.38
2019-05-15T16:23:02.924Z,37.64
2019-05-15T16:25:33.045Z,37.83
2019-05-15T16:28:03.181Z,37.92
2019-05-15T16:30:47.149Z,38.18
2019-05-15T16:33:05.596Z,37.84
2019-05-15T16:35:37.944Z,37.67
2019-05-15T16:38:09.219Z,37.51
2019-05-15T16:40:39.493Z,37.94
2019-05-15T16:43:09.617Z,37.91
2019-05-15T16:45:39.761Z,37.22
2019-05-15T16:48:09.926Z,37.05
2019-05-15T16:50:40.037Z,37.34
2019-05-15T16:53:10.215Z,37.75
2019-05-15T16:55:41.411Z,37.52
2019-05-15T16:58:11.821Z,37.74
2019-05-15T17:00:41.959Z,37.63
2019-05-15T17:03:14.932Z,37.89
2019-05-15T17:05:44.113Z,37.95
2019-05-15T17:08:14.256Z,38.27
2019-05-15T17:10:44.387Z,38.11
2019-05-15T17:13:14.998Z,38.21
2019-05-15T17:15:45.111Z,38.34
2019-05-15T17:18:15.258Z,38.35
2019-05-15T17:20:45.496Z,38.98
2019-05-15T17:23:15.647Z,39.29
2019-05-15T17:25:45.776Z,39.64
2019-05-15T17:28:18.565Z,39.62
2019-05-15T17:30:49.955Z,39.44
2019-05-15T17:33:20.091Z,39.29
2019-05-15T17:35:50.207Z,38.94
2019-05-15T17:38:20.357Z,38.33
2019-05-15T17:40:50.493Z,38.15
2019-05-15T17:43:21.719Z,38.22
2019-05-15T17:45:51.845Z,38.04
2019-05-15T17:48:21.972Z,37.84
2019-05-15T17:50:52.766Z,37.84
2019-05-15T17:53:23.030Z,37.62
2019-05-15T17:55:53.161Z,37.85
2019-05-15T17:58:23.291Z,37.51
2019-05-15T18:00:53.434Z,37.35
2019-05-15T18:03:23.583Z,37.48
2019-05-15T18:05:54.776Z,37.25
2019-05-15T18:08:24.898Z,37.32
2019-05-15T18:10:55.200Z,37.41
2019-05-15T18:13:25.360Z,37.49
2019-05-15T18:16:01.849Z,37.52
2019-05-15T18:18:27.359Z,37.64
2019-05-15T18:20:58.116Z,37.42
2019-05-15T18:23:28.585Z,37.44
2019-05-15T18:25:59.016Z,37.30
2019-05-15T18:28:29.174Z,37.45
2019-05-15T18:30:59.295Z,37.82
2019-05-15T18:33:29.439Z,37.92
2019-05-15T18:35:59.579Z,37.80
2019-05-15T18:38:29.759Z,38.01
2019-05-15T18:41:00.259Z,37.83
2019-05-15T18:43:30.539Z,37.80
2019-05-15T18:46:00.700Z,38.01
2019-05-15T18:48:30.895Z,37.76
2019-05-15T18:51:01.072Z,38.68
2019-05-15T18:53:31.252Z,38.84
2019-05-15T18:56:02.444Z,39.04
2019-05-15T18:58:32.752Z,39.15
2019-05-15T19:01:03.068Z,39.70
2019-05-15T19:03:33.645Z,39.86
2019-05-15T19:06:05.025Z,40.09
2019-05-15T19:08:35.324Z,40.57
2019-05-15T19:11:05.652Z,40.59
2019-05-15T19:13:35.944Z,41.01
2019-05-15T19:16:06.327Z,40.89
2019-05-15T19:18:38.479Z,41.37
2019-05-15T19:21:08.586Z,42.19
2019-05-15T19:23:40.451Z,42.37
2019-05-15T19:26:11.838Z,42.22
2019-05-15T19:28:42.330Z,42.21
2019-05-15T19:31:23.353Z,42.54
2019-05-15T19:33:44.566Z,43.17
2019-05-15T19:36:17.935Z,43.62
2019-05-15T19:38:48.239Z,43.87
2019-05-15T19:41:18.478Z,44.27
2019-05-15T19:43:48.849Z,44.55
2019-05-15T19:46:19.171Z,44.54
2019-05-15T19:48:50.590Z,44.80
2019-05-15T19:51:20.849Z,44.56
2019-05-15T19:53:51.296Z,45.21
2019-05-15T19:56:21.484Z,45.24
2019-05-15T19:58:51.761Z,45.38
2019-05-15T20:01:23.190Z,46.02
2019-05-15T20:03:53.543Z,46.18
2019-05-15T20:06:28.082Z,46.08
2019-05-15T20:08:58.759Z,46.47
2019-05-15T20:11:30.331Z,46.48
2019-05-15T20:14:00.774Z,46.52
2019-05-15T20:16:31.241Z,46.70
2019-05-15T20:19:01.511Z,46.87
2019-05-15T20:21:31.778Z,47.21
2019-05-15T20:24:02.274Z,47.22
2019-05-15T20:26:32.416Z,48.05
2019-05-15T20:29:04.959Z,47.99
2019-05-15T20:31:35.119Z,47.66
2019-05-15T20:34:06.237Z,47.75
2019-05-15T20:36:38.583Z,47.86
2019-05-15T20:39:09.111Z,48.11
2019-05-15T20:41:39.298Z,48.49
2019-05-15T20:44:09.451Z,48.43
2019-05-15T20:46:40.531Z,48.66
2019-05-15T20:49:10.650Z,48.78
2019-05-15T20:51:40.846Z,48.77
2019-05-15T20:54:11.067Z,48.85
2019-05-15T20:56:41.197Z,49.01
2019-05-15T20:59:11.410Z,49.21
2019-05-15T21:01:41.528Z,49.53
2019-05-15T21:04:20.519Z,49.99
2019-05-15T21:06:43.498Z,50.09
2019-05-15T21:09:13.909Z,50.25
2019-05-15T21:11:44.047Z,50.22
2019-05-15T21:14:14.255Z,50.19
2019-05-15T21:16:44.397Z,50.23
2019-05-15T21:19:15.606Z,50.19
2019-05-15T21:21:47.583Z,50.28
2019-05-15T21:24:18.213Z,50.58
2019-05-15T21:26:48.997Z,50.66
2019-05-15T21:29:19.192Z,50.83
2019-05-15T21:31:49.318Z,50.94
2019-05-15T21:34:33.468Z,51.03
2019-05-15T21:36:52.232Z,51.14
2019-05-15T21:39:23.660Z,51.22
2019-05-15T21:41:53.844Z,51.32
2019-05-15T21:44:23.974Z,51.53
2019-05-15T21:46:54.094Z,51.67
2019-05-15T21:49:24.236Z,51.72
2019-05-15T21:51:54.356Z,51.73
2019-05-15T21:54:24.680Z,52.05
2019-05-15T21:57:06.781Z,52.13
2019-05-15T21:59:27.841Z,52.15
2019-05-15T22:01:58.973Z,52.40
2019-05-15T22:04:30.662Z,52.61
2019-05-15T22:07:01.870Z,52.54
2019-05-15T22:09:33.359Z,53.03
2019-05-15T22:12:04.373Z,52.83
2019-05-15T22:14:34.650Z,53.30
2019-05-15T22:17:04.900Z,53.45
2019-05-15T22:19:35.033Z,53.85
2019-05-15T22:22:08.623Z,53.85
2019-05-15T22:24:38.059Z,54.10
2019-05-15T22:27:09.602Z,54.31
2019-05-15T22:29:39.948Z,53.96
2019-05-15T22:32:10.063Z,54.51
2019-05-15T22:34:40.195Z,54.27
2019-05-15T22:37:10.332Z,54.11
2019-05-15T22:39:40.747Z,54.20
2019-05-15T22:42:11.171Z,54.09
2019-05-15T22:44:41.266Z,53.84
2019-05-15T22:47:11.391Z,54.00
2019-05-15T22:49:41.534Z,54.16
2019-05-15T22:52:11.694Z,54.76
2019-05-15T22:54:42.122Z,55.05
2019-05-15T22:57:12.250Z,54.68
2019-05-15T22:59:42.526Z,54.52
2019-05-15T23:02:12.714Z,54.46
2019-05-15T23:04:43.042Z,54.62
2019-05-15T23:07:13.432Z,54.90
2019-05-15T23:09:43.838Z,54.92
2019-05-15T23:12:13.984Z,54.97
2019-05-15T23:14:44.467Z,55.31
2019-05-15T23:17:14.595Z,55.22
2019-05-15T23:19:44.729Z,55.16
2019-05-15T23:22:14.848Z,55.18
2019-05-15T23:24:44.981Z,55.07
2019-05-15T23:27:15.100Z,55.01
2019-05-15T23:29:46.290Z,55.00
2019-05-15T23:32:18.226Z,54.98
2019-05-15T23:34:49.173Z,55.05
2019-05-15T23:37:19.431Z,54.97
2019-05-15T23:39:50.626Z,55.36
2019-05-15T23:42:20.757Z,55.39
2019-05-15T23:44:50.872Z,55.60
2019-05-15T23:47:21.005Z,55.65
2019-05-15T23:49:51.123Z,55.70
2019-05-15T23:52:21.235Z,55.79
2019-05-15T23:54:51.359Z,55.95
2019-05-15T23:57:21.570Z,55.87
2019-05-15T23:59:51.686Z,55.98
